Time;durP1;ratioP1;P1;durP2;ratioP2;P2;SDS_P1;SDS_P2;PMS_P1;PMS_P2;Temp;Humidity;BMP_temperature;BMP_pressure;BME280_temperature;BME280_humidity;BME280_pressure;Samples;Min_cycle;Max_cycle;Signal;HPM_P1;HPM_P2
2024/01/27 00:01:55;;;;;;;23.48;3.30;;;4.70;99.90;;;;;;4900154;29;20096;-76
2024/01/27 00:04:20;;;;;;;23.83;4.05;;;4.70;99.90;;;;;;4900732;29;20045;-76
2024/01/27 00:06:46;;;;;;;26.17;4.15;;;4.70;99.90;;;;;;4884371;29;20048;-76
2024/01/27 00:09:12;;;;;;;32.50;3.78;;;4.60;99.90;;;;;;4883910;29;20409;-76
2024/01/27 00:11:39;;;;;;;20.92;3.00;;;4.60;99.90;;;;;;4883806;29;20102;-76
2024/01/27 00:14:05;;;;;;;26.42;5.32;;;4.60;99.90;;;;;;4900690;29;20048;-76
2024/01/27 00:16:30;;;;;;;24.60;4.15;;;4.60;99.90;;;;;;4884140;29;20051;-76
2024/01/27 00:18:56;;;;;;;26.30;3.88;;;4.60;99.90;;;;;;4883970;29;20481;-76
2024/01/27 00:21:21;;;;;;;17.10;3.47;;;4.60;99.90;;;;;;4883911;29;20053;-76
2024/01/27 00:23:47;;;;;;;20.55;4.05;;;4.60;99.90;;;;;;4883652;29;20048;-75
2024/01/27 00:26:13;;;;;;;20.52;4.50;;;4.60;99.90;;;;;;4883643;29;20374;-76
2024/01/27 00:28:38;;;;;;;25.05;4.47;;;4.50;99.90;;;;;;4883971;29;20125;-76
2024/01/27 00:31:04;;;;;;;31.58;5.43;;;4.50;99.90;;;;;;4883572;29;20048;-76
2024/01/27 00:33:29;;;;;;;23.45;4.10;;;4.50;99.90;;;;;;4883876;29;20048;-76
2024/01/27 00:35:55;;;;;;;22.60;3.83;;;4.50;99.90;;;;;;4900204;29;20501;-76
2024/01/27 00:38:21;;;;;;;31.00;4.93;;;4.50;99.90;;;;;;4883447;29;20045;-76
2024/01/27 00:40:46;;;;;;;27.17;4.28;;;4.50;99.90;;;;;;4883273;29;20063;-76
2024/01/27 00:43:12;;;;;;;23.75;3.45;;;4.50;99.90;;;;;;4900106;29;20064;-76
2024/01/27 00:45:38;;;;;;;16.00;3.58;;;4.50;99.90;;;;;;4883550;29;20078;-76
2024/01/27 00:48:04;;;;;;;24.90;4.05;;;4.60;99.90;;;;;;4883413;29;20064;-76
2024/01/27 00:50:30;;;;;;;23.50;3.95;;;4.50;99.90;;;;;;4883654;29;20052;-76
2024/01/27 00:52:56;;;;;;;20.25;4.47;;;4.60;99.90;;;;;;4900143;29;20067;-76
2024/01/27 00:55:21;;;;;;;24.63;4.40;;;4.60;99.90;;;;;;4900110;29;20108;-76
2024/01/27 00:57:47;;;;;;;26.67;3.78;;;4.70;99.90;;;;;;4883492;29;20044;-76
2024/01/27 01:00:13;;;;;;;21.70;3.17;;;4.70;99.90;;;;;;4900080;29;20512;-76
2024/01/27 01:02:40;;;;;;;20.50;3.65;;;4.60;99.90;;;;;;4883182;29;20052;-76
2024/01/27 01:05:06;;;;;;;17.58;3.42;;;4.60;99.90;;;;;;4883006;29;20045;-76
2024/01/27 01:07:32;;;;;;;23.88;4.13;;;4.60;99.90;;;;;;4883164;29;20051;-76
2024/01/27 01:09:58;;;;;;;30.60;4.82;;;4.50;99.90;;;;;;4899611;29;20124;-76
2024/01/27 01:12:30;;;;;;;21.10;3.17;;;4.60;99.90;;;;;;4882910;29;20080;-76
2024/01/27 01:14:55;;;;;;;19.85;3.10;;;4.50;99.90;;;;;;4882575;29;20060;-76
2024/01/27 01:17:22;;;;;;;19.85;3.58;;;4.40;99.90;;;;;;4899616;29;20060;-76
2024/01/27 01:19:47;;;;;;;20.50;4.35;;;4.40;99.90;;;;;;4883095;29;20044;-76
2024/01/27 01:22:13;;;;;;;24.65;3.72;;;4.40;99.90;;;;;;4882843;29;20117;-76
2024/01/27 01:24:38;;;;;;;24.08;3.58;;;4.30;99.90;;;;;;4899471;29;20060;-76
2024/01/27 01:27:05;;;;;;;20.35;3.75;;;4.30;99.90;;;;;;4899556;29;20049;-76
2024/01/27 01:29:31;;;;;;;27.13;4.07;;;4.30;99.90;;;;;;4882572;29;20409;-76
2024/01/27 01:31:57;;;;;;;24.38;3.40;;;4.30;99.90;;;;;;4882767;29;20472;-76
2024/01/27 01:34:25;;;;;;;22.92;3.65;;;4.20;99.90;;;;;;4882599;29;20044;-76
2024/01/27 01:36:51;;;;;;;26.83;3.63;;;4.20;99.90;;;;;;4882626;29;20101;-76
2024/01/27 01:39:16;;;;;;;20.27;3.45;;;4.20;99.90;;;;;;4899331;29;20392;-76
2024/01/27 01:41:42;;;;;;;23.25;4.22;;;4.20;99.90;;;;;;4882327;29;20139;-76
2024/01/27 01:44:07;;;;;;;17.85;3.08;;;4.10;99.90;;;;;;4882390;29;20140;-76
2024/01/27 01:46:34;;;;;;;21.20;3.33;;;4.20;99.90;;;;;;4899198;29;20040;-76
2024/01/27 01:49:03;;;;;;;20.55;3.13;;;4.10;99.90;;;;;;4882430;29;20075;-76
2024/01/27 01:51:28;;;;;;;19.33;3.03;;;4.10;99.90;;;;;;4882134;29;20127;-76
2024/01/27 01:53:58;;;;;;;28.25;3.65;;;4.10;99.90;;;;;;4881895;29;20143;-76
2024/01/27 01:56:25;;;;;;;25.52;4.70;;;4.00;99.90;;;;;;4882558;29;20449;-76
2024/01/27 01:58:50;;;;;;;22.33;2.70;;;4.10;99.90;;;;;;4882445;29;20051;-76
2024/01/27 02:01:21;;;;;;;20.33;3.10;;;4.00;99.90;;;;;;4882093;29;20131;-76
2024/01/27 02:03:57;;;;;;;18.60;3.15;;;4.10;99.90;;;;;;4881847;29;20128;-76
2024/01/27 02:06:23;;;;;;;18.05;3.38;;;4.00;99.90;;;;;;4882032;29;20052;-76
2024/01/27 02:08:49;;;;;;;19.92;3.55;;;4.00;99.90;;;;;;4882003;29;20103;-76
2024/01/27 02:11:20;;;;;;;20.67;3.28;;;4.10;99.90;;;;;;4881646;29;20408;-76
2024/01/27 02:13:49;;;;;;;24.60;3.83;;;4.10;99.90;;;;;;4882204;29;20049;-75
2024/01/27 02:16:17;;;;;;;21.30;2.88;;;4.10;99.90;;;;;;4898715;29;20049;-76
2024/01/27 02:18:43;;;;;;;18.08;3.90;;;4.10;99.90;;;;;;4898729;29;20053;-76
2024/01/27 02:21:09;;;;;;;23.55;4.68;;;4.00;99.90;;;;;;4882055;29;20386;-76
2024/01/27 02:23:34;;;;;;;22.77;3.50;;;4.00;99.90;;;;;;4898656;29;20051;-76
2024/01/27 02:26:00;;;;;;;22.30;3.83;;;4.10;99.90;;;;;;4881177;29;20088;-76
2024/01/27 02:28:26;;;;;;;23.73;4.78;;;4.00;99.90;;;;;;4881577;29;20052;-76
2024/01/27 02:30:51;;;;;;;24.20;3.30;;;4.00;99.90;;;;;;4881833;29;20049;-76
2024/01/27 02:33:17;;;;;;;19.75;3.55;;;4.00;99.90;;;;;;4881586;29;20052;-76
2024/01/27 02:35:43;;;;;;;24.98;5.18;;;4.10;99.90;;;;;;4881971;29;20097;-76
2024/01/27 02:38:09;;;;;;;25.55;3.72;;;4.10;99.90;;;;;;4882011;29;20103;-76
2024/01/27 02:40:35;;;;;;;17.30;3.17;;;4.00;99.90;;;;;;4881739;29;20485;-76
2024/01/27 02:43:00;;;;;;;21.50;2.97;;;4.00;99.90;;;;;;4898366;29;20045;-76
2024/01/27 02:45:26;;;;;;;20.25;2.88;;;4.00;99.90;;;;;;4881235;29;20382;-76
2024/01/27 02:47:52;;;;;;;18.65;4.18;;;4.00;99.90;;;;;;4898516;29;20053;-76
2024/01/27 02:50:21;;;;;;;15.82;3.35;;;4.00;99.90;;;;;;4898399;29;20056;-76
2024/01/27 02:52:46;;;;;;;21.65;5.03;;;3.90;99.90;;;;;;4898471;29;20127;-76
2024/01/27 02:55:12;;;;;;;16.45;2.97;;;3.90;99.90;;;;;;4881461;29;20457;-76
2024/01/27 02:57:40;;;;;;;18.83;4.13;;;3.90;99.90;;;;;;4881612;29;20048;-76
2024/01/27 03:00:07;;;;;;;22.17;4.28;;;3.90;99.90;;;;;;4881435;29;20051;-76
2024/01/27 03:02:33;;;;;;;19.00;3.58;;;3.90;99.90;;;;;;4898143;29;20487;-76
2024/01/27 03:04:58;;;;;;;16.85;2.70;;;3.80;99.90;;;;;;4898259;29;20080;-76
2024/01/27 03:07:24;;;;;;;20.35;5.35;;;3.80;99.90;;;;;;4881511;29;20052;-76
2024/01/27 03:09:50;;;;;;;26.27;3.78;;;3.80;99.90;;;;;;4881505;29;20092;-76
2024/01/27 03:12:18;;;;;;;24.77;4.97;;;3.80;99.90;;;;;;4898242;29;20091;-76
2024/01/27 03:14:46;;;;;;;20.10;3.00;;;3.80;99.90;;;;;;4881219;29;20059;-75
2024/01/27 03:17:11;;;;;;;19.08;2.65;;;3.80;99.90;;;;;;4881560;29;20123;-76
2024/01/27 03:19:37;;;;;;;17.65;3.17;;;3.70;99.90;;;;;;4881312;29;20132;-76
2024/01/27 03:22:03;;;;;;;21.63;3.05;;;3.70;99.90;;;;;;4881386;29;20084;-76
2024/01/27 03:24:28;;;;;;;20.73;3.50;;;3.80;99.90;;;;;;4881593;29;20052;-76
2024/01/27 03:26:54;;;;;;;16.50;3.00;;;3.70;99.90;;;;;;4881383;29;20516;-76
2024/01/27 03:29:19;;;;;;;18.45;3.55;;;3.70;99.90;;;;;;4898137;29;20127;-76
2024/01/27 03:31:45;;;;;;;22.80;4.15;;;3.70;99.90;;;;;;4881464;29;20048;-76
2024/01/27 03:34:11;;;;;;;18.02;2.95;;;3.70;99.90;;;;;;4898055;29;20056;-75
2024/01/27 03:36:36;;;;;;;15.77;2.70;;;3.70;99.90;;;;;;4882141;29;20405;-76
2024/01/27 03:39:03;;;;;;;23.95;4.45;;;3.70;99.90;;;;;;4884392;29;20209;-76
2024/01/27 03:41:28;;;;;;;22.75;2.90;;;3.70;99.90;;;;;;4901460;29;20115;-76
2024/01/27 03:43:54;;;;;;;17.98;3.63;;;3.60;99.90;;;;;;4884385;29;20559;-76
2024/01/27 03:46:20;;;;;;;17.45;3.70;;;3.60;99.90;;;;;;4884462;29;20514;-76
2024/01/27 03:48:45;;;;;;;20.35;3.08;;;3.60;99.90;;;;;;4884573;29;20088;-76
2024/01/27 03:51:11;;;;;;;23.02;3.08;;;3.60;99.90;;;;;;4901259;29;20040;-76
2024/01/27 03:53:37;;;;;;;16.67;2.85;;;3.60;99.90;;;;;;4884419;29;20044;-76
2024/01/27 03:56:04;;;;;;;21.60;3.70;;;3.60;99.90;;;;;;4884354;29;20065;-76
2024/01/27 03:58:30;;;;;;;18.10;4.22;;;3.60;99.90;;;;;;4884174;29;20100;-76
2024/01/27 04:00:57;;;;;;;24.95;3.08;;;3.60;99.90;;;;;;4884168;29;20449;-75
2024/01/27 04:03:23;;;;;;;21.52;6.18;;;3.70;99.90;;;;;;4884026;29;20076;-76
2024/01/27 04:05:48;;;;;;;19.38;3.53;;;3.60;99.90;;;;;;4900966;29;20048;-76
2024/01/27 04:08:14;;;;;;;20.73;2.80;;;3.60;99.90;;;;;;4884379;29;20080;-76
2024/01/27 04:10:41;;;;;;;19.95;4.03;;;3.60;99.90;;;;;;4883761;29;20052;-75
2024/01/27 04:13:08;;;;;;;18.02;2.90;;;3.60;99.90;;;;;;4901077;29;20049;-76
2024/01/27 04:15:38;;;;;;;13.30;2.90;;;3.60;99.90;;;;;;4883771;29;20056;-76
2024/01/27 04:18:05;;;;;;;17.20;3.05;;;3.60;99.90;;;;;;4884405;29;20033;-76
2024/01/27 04:20:31;;;;;;;17.58;3.17;;;3.60;99.90;;;;;;4900610;29;20044;-76
2024/01/27 04:22:57;;;;;;;25.25;3.38;;;3.50;99.90;;;;;;4900522;29;20052;-76
2024/01/27 04:25:22;;;;;;;14.90;3.35;;;3.50;99.90;;;;;;4900502;29;20060;-76
2024/01/27 04:27:48;;;;;;;11.45;2.53;;;3.50;99.90;;;;;;4883943;29;20124;-76
2024/01/27 04:30:13;;;;;;;18.00;2.92;;;3.40;99.90;;;;;;4883684;29;20463;-76
2024/01/27 04:32:39;;;;;;;18.30;3.78;;;3.40;99.90;;;;;;4883882;29;20052;-76
2024/01/27 04:35:08;;;;;;;17.83;2.80;;;3.40;99.90;;;;;;4883913;29;20060;-76
2024/01/27 04:37:34;;;;;;;26.17;3.92;;;3.40;99.90;;;;;;4883793;29;20061;-76
2024/01/27 04:40:00;;;;;;;16.65;4.15;;;3.40;99.90;;;;;;4884331;29;20146;-76
2024/01/27 04:42:25;;;;;;;25.90;4.28;;;3.40;99.90;;;;;;4883295;29;20071;-76
2024/01/27 04:44:51;;;;;;;21.63;3.70;;;3.40;99.90;;;;;;4883435;29;20099;-76
2024/01/27 04:47:17;;;;;;;20.00;2.75;;;3.50;99.90;;;;;;4883629;29;20041;-75
2024/01/27 04:49:42;;;;;;;16.38;2.88;;;3.50;99.90;;;;;;4899352;29;20400;-75
2024/01/27 04:52:08;;;;;;;20.35;3.30;;;3.50;99.90;;;;;;4883588;29;20048;-76
2024/01/27 04:54:34;;;;;;;19.90;3.38;;;3.40;99.90;;;;;;4883395;29;20404;-76
2024/01/27 04:56:59;;;;;;;16.23;2.97;;;3.40;99.90;;;;;;4883238;29;20055;-76
2024/01/27 04:59:25;;;;;;;16.80;2.65;;;3.40;99.90;;;;;;4883491;29;20056;-76
2024/01/27 05:01:51;;;;;;;21.38;4.60;;;3.40;99.90;;;;;;4883422;29;20526;-76
2024/01/27 05:04:16;;;;;;;17.92;3.25;;;3.30;99.90;;;;;;4883082;29;20051;-76
2024/01/27 05:06:45;;;;;;;18.70;3.20;;;3.30;99.90;;;;;;4882910;29;20576;-76
2024/01/27 05:09:11;;;;;;;20.42;3.40;;;3.30;99.90;;;;;;4899602;29;20508;-76
2024/01/27 05:11:38;;;;;;;17.50;3.50;;;3.20;99.90;;;;;;4882856;29;20057;-76
2024/01/27 05:14:06;;;;;;;21.50;4.82;;;3.30;99.90;;;;;;4882759;29;20469;-76
2024/01/27 05:16:33;;;;;;;21.13;3.42;;;3.30;99.90;;;;;;4882857;29;20422;-76
2024/01/27 05:18:58;;;;;;;18.95;3.60;;;3.20;99.90;;;;;;4882825;29;20409;-76
2024/01/27 05:21:24;;;;;;;17.42;2.88;;;3.30;99.90;;;;;;4882903;29;20500;-76
2024/01/27 05:23:50;;;;;;;23.05;3.33;;;3.30;99.90;;;;;;4882665;29;20048;-76
2024/01/27 05:26:15;;;;;;;19.45;2.60;;;3.30;99.90;;;;;;4882662;29;20450;-76
2024/01/27 05:28:41;;;;;;;20.88;4.72;;;3.30;99.90;;;;;;4882538;29;20049;-76
2024/01/27 05:31:08;;;;;;;17.65;3.63;;;3.20;99.90;;;;;;4882542;29;20109;-76
2024/01/27 05:33:33;;;;;;;19.20;2.78;;;3.20;99.90;;;;;;4883386;29;20477;-76
2024/01/27 05:35:59;;;;;;;22.05;4.03;;;3.20;99.90;;;;;;4882383;29;20060;-75
2024/01/27 05:38:25;;;;;;;15.85;2.60;;;3.20;99.90;;;;;;4882431;29;20053;-76
2024/01/27 05:40:51;;;;;;;18.65;3.30;;;3.20;99.90;;;;;;4882681;29;20505;-76
2024/01/27 05:43:17;;;;;;;15.40;2.55;;;3.20;99.90;;;;;;4882163;29;20084;-76
2024/01/27 05:45:46;;;;;;;18.40;3.05;;;3.20;99.90;;;;;;4882391;29;20057;-76
2024/01/27 05:48:12;;;;;;;19.38;2.55;;;3.20;99.90;;;;;;4882648;29;20048;-76
2024/01/27 05:50:41;;;;;;;16.10;2.58;;;3.10;99.90;;;;;;4898998;29;20508;-76
2024/01/27 05:53:07;;;;;;;18.00;3.13;;;3.20;99.90;;;;;;4882417;29;20055;-75
2024/01/27 05:55:33;;;;;;;21.67;4.88;;;3.20;99.90;;;;;;4882435;29;20060;-76
2024/01/27 05:57:59;;;;;;;24.95;3.90;;;3.20;99.90;;;;;;4882457;29;20056;-76
2024/01/27 06:00:28;;;;;;;20.00;3.13;;;3.20;99.90;;;;;;4898970;29;20063;-75
2024/01/27 06:02:54;;;;;;;22.33;3.42;;;3.20;99.90;;;;;;4882010;29;20081;-76
2024/01/27 06:05:20;;;;;;;19.13;3.63;;;3.20;99.90;;;;;;4881955;29;20048;-76
2024/01/27 06:07:46;;;;;;;26.05;3.25;;;3.20;99.90;;;;;;4881893;29;20056;-76
2024/01/27 06:10:18;;;;;;;12.02;2.70;;;3.10;99.90;;;;;;4881896;29;20053;-76
2024/01/27 06:12:43;;;;;;;22.42;3.28;;;3.10;99.90;;;;;;4881889;29;20413;-76
2024/01/27 06:15:10;;;;;;;17.00;3.30;;;3.10;99.90;;;;;;4882005;29;20047;-76
2024/01/27 06:17:37;;;;;;;14.27;3.30;;;3.10;99.90;;;;;;4882019;29;20076;-76
2024/01/27 06:20:04;;;;;;;20.67;2.58;;;3.00;99.90;;;;;;4882076;29;20098;-76
2024/01/27 06:22:31;;;;;;;17.55;2.90;;;3.10;99.90;;;;;;4898612;29;20044;-76
2024/01/27 06:25:00;;;;;;;17.85;3.10;;;3.00;99.90;;;;;;4865064;29;20057;-75
2024/01/27 06:27:25;;;;;;;17.75;3.65;;;3.00;99.90;;;;;;4863464;29;20048;-75
2024/01/27 06:29:51;;;;;;;19.48;4.05;;;3.00;99.90;;;;;;4863033;29;20135;-76
2024/01/27 06:32:17;;;;;;;18.27;3.42;;;3.10;99.90;;;;;;4863281;29;20131;-76
2024/01/27 06:34:43;;;;;;;15.93;3.85;;;3.10;99.90;;;;;;4863146;29;20052;-76
2024/01/27 06:37:09;;;;;;;18.15;4.57;;;3.10;99.90;;;;;;4879919;29;20052;-76
2024/01/27 06:39:34;;;;;;;24.48;4.68;;;3.10;99.90;;;;;;4879960;29;20053;-76
2024/01/27 06:42:00;;;;;;;22.10;2.65;;;3.10;99.90;;;;;;4863224;29;20397;-76
2024/01/27 06:44:25;;;;;;;13.38;2.58;;;3.10;99.90;;;;;;4863251;29;20052;-76
2024/01/27 06:46:51;;;;;;;22.27;3.72;;;3.10;99.90;;;;;;4863264;29;20128;-76
2024/01/27 06:49:17;;;;;;;20.10;3.05;;;3.10;99.90;;;;;;4863166;29;20087;-76
2024/01/27 06:51:43;;;;;;;21.75;3.17;;;3.10;99.90;;;;;;4863460;29;20370;-76
2024/01/27 06:54:09;;;;;;;13.05;2.33;;;3.10;99.90;;;;;;4863055;29;20618;-76
2024/01/27 06:56:35;;;;;;;17.45;2.92;;;3.00;99.90;;;;;;4863237;29;20136;-76
2024/01/27 06:59:00;;;;;;;21.17;2.97;;;3.00;99.90;;;;;;4863125;29;20045;-76
2024/01/27 07:01:26;;;;;;;11.65;2.90;;;3.00;99.90;;;;;;4863250;29;20053;-76
2024/01/27 07:03:52;;;;;;;22.05;3.53;;;3.00;99.90;;;;;;4862738;29;20045;-76
2024/01/27 07:06:17;;;;;;;15.05;2.50;;;3.00;99.90;;;;;;4879677;29;20096;-76
2024/01/27 07:08:43;;;;;;;19.42;3.08;;;3.00;99.90;;;;;;4879589;29;20140;-76
2024/01/27 07:11:10;;;;;;;17.90;3.83;;;3.00;99.90;;;;;;4879198;29;20140;-76
2024/01/27 07:13:37;;;;;;;19.23;2.95;;;3.00;99.90;;;;;;4883024;29;20064;-76
2024/01/27 07:16:03;;;;;;;21.92;3.47;;;3.00;99.90;;;;;;4866291;29;20501;-76
2024/01/27 07:18:29;;;;;;;16.73;3.08;;;3.00;99.90;;;;;;4865359;29;20053;-76
2024/01/27 07:20:59;;;;;;;22.27;4.45;;;3.00;99.90;;;;;;4866003;29;20045;-76
2024/01/27 07:23:25;;;;;;;20.60;3.60;;;3.00;99.90;;;;;;4866003;29;20064;-76
2024/01/27 07:25:50;;;;;;;15.00;3.75;;;3.00;99.90;;;;;;4866528;29;20053;-76
2024/01/27 07:28:18;;;;;;;17.83;2.70;;;2.90;99.90;;;;;;4866092;29;20145;-76
2024/01/27 07:30:44;;;;;;;12.25;4.10;;;2.90;99.90;;;;;;4882636;29;20408;-76
2024/01/27 07:33:10;;;;;;;18.95;2.50;;;2.90;99.90;;;;;;4866022;29;20522;-76
2024/01/27 07:35:35;;;;;;;17.23;2.72;;;2.90;99.90;;;;;;4882686;29;20056;-76
2024/01/27 07:38:01;;;;;;;17.10;2.95;;;2.90;99.90;;;;;;4866119;29;20143;-76
2024/01/27 07:40:33;;;;;;;19.88;2.20;;;2.90;99.90;;;;;;4882566;29;20083;-76
2024/01/27 07:42:59;;;;;;;22.17;4.60;;;2.90;99.90;;;;;;4865554;29;20137;-76
2024/01/27 07:45:24;;;;;;;16.63;3.88;;;2.90;99.90;;;;;;4865782;29;20144;-76
2024/01/27 07:47:50;;;;;;;12.48;3.80;;;2.90;99.90;;;;;;4882304;29;20080;-76
2024/01/27 07:50:15;;;;;;;26.45;4.00;;;2.90;99.90;;;;;;4865915;29;20041;-75
2024/01/27 07:52:41;;;;;;;23.05;4.13;;;2.90;99.90;;;;;;4865829;29;20053;-75
2024/01/27 07:55:08;;;;;;;14.90;3.30;;;2.90;99.90;;;;;;4865582;29;20061;-76
2024/01/27 07:57:33;;;;;;;17.98;4.60;;;3.00;99.90;;;;;;4865423;29;20394;-75
2024/01/27 07:59:59;;;;;;;19.80;4.28;;;3.00;99.90;;;;;;4865581;29;20558;-76
2024/01/27 08:02:27;;;;;;;18.65;4.25;;;3.00;99.90;;;;;;4865555;29;20076;-76
2024/01/27 08:04:53;;;;;;;29.20;5.13;;;3.00;99.90;;;;;;4865404;29;20135;-76
2024/01/27 08:07:19;;;;;;;13.18;2.70;;;3.00;99.90;;;;;;4882281;29;20087;-79
2024/01/27 08:09:52;;;;;;;21.30;3.60;;;3.00;99.90;;;;;;4865446;29;20132;-77
2024/01/27 08:12:19;;;;;;;22.65;3.50;;;3.10;99.90;;;;;;4865201;29;20135;-79
2024/01/27 08:14:44;;;;;;;22.17;3.63;;;3.10;99.90;;;;;;4865203;29;20056;-77
2024/01/27 08:17:10;;;;;;;14.00;3.55;;;3.10;99.90;;;;;;4865199;29;20055;-76
2024/01/27 08:19:37;;;;;;;17.80;5.03;;;3.10;99.90;;;;;;4865185;29;20076;-76
2024/01/27 08:22:03;;;;;;;16.77;3.30;;;3.20;99.90;;;;;;4865334;29;20056;-76
2024/01/27 08:24:28;;;;;;;17.45;3.22;;;3.20;99.90;;;;;;4857336;29;20409;-77
2024/01/27 08:26:54;;;;;;;17.15;3.25;;;3.30;99.90;;;;;;4849544;29;20049;-80
2024/01/27 08:29:20;;;;;;;19.23;4.15;;;3.30;99.90;;;;;;4863139;29;20038;-75
2024/01/27 08:31:45;;;;;;;17.33;4.07;;;3.30;99.90;;;;;;4863019;29;20509;-75
2024/01/27 08:34:12;;;;;;;16.52;3.15;;;3.30;99.90;;;;;;4846280;29;20140;-76
2024/01/27 08:36:38;;;;;;;15.35;3.78;;;3.40;99.90;;;;;;4846439;29;20045;-76
2024/01/27 08:39:05;;;;;;;18.17;4.13;;;3.40;99.90;;;;;;4846101;29;20054;-76
2024/01/27 08:41:31;;;;;;;21.20;5.18;;;3.50;99.90;;;;;;4846290;29;20049;-75
2024/01/27 08:43:57;;;;;;;19.75;3.75;;;3.50;99.90;;;;;;4862607;29;20383;-77
2024/01/27 08:46:22;;;;;;;14.98;3.90;;;3.50;99.90;;;;;;4862548;29;20093;-76
2024/01/27 08:48:48;;;;;;;18.85;4.80;;;3.50;99.90;;;;;;4846247;29;20390;-78
2024/01/27 08:51:15;;;;;;;18.83;4.35;;;3.60;99.90;;;;;;4853465;29;20074;-76
2024/01/27 08:53:42;;;;;;;23.50;5.20;;;3.70;99.90;;;;;;4896061;29;20057;-76
2024/01/27 08:56:07;;;;;;;24.25;4.03;;;3.70;99.90;;;;;;4872841;29;20481;-76
2024/01/27 08:58:33;;;;;;;19.92;4.55;;;3.80;99.90;;;;;;4869410;29;20129;-76
2024/01/27 09:01:05;;;;;;;23.20;4.15;;;3.80;99.90;;;;;;4864152;29;20049;-77
2024/01/27 09:03:30;;;;;;;21.10;4.47;;;3.80;99.90;;;;;;4870722;29;20402;-76
2024/01/27 09:05:56;;;;;;;19.65;5.28;;;4.00;99.90;;;;;;4871982;29;20512;-76
2024/01/27 09:08:22;;;;;;;22.73;4.28;;;4.00;99.90;;;;;;4868767;29;20502;-76
2024/01/27 09:10:52;;;;;;;22.42;4.40;;;4.00;99.90;;;;;;4864025;29;20099;-76
2024/01/27 09:13:18;;;;;;;20.05;4.63;;;4.10;99.90;;;;;;4895081;29;20060;-77
2024/01/27 09:15:44;;;;;;;16.52;4.22;;;4.20;99.90;;;;;;4863851;29;20056;-76
2024/01/27 09:18:09;;;;;;;20.55;3.33;;;4.20;99.90;;;;;;4864199;29;20053;-77
2024/01/27 09:20:35;;;;;;;25.40;4.20;;;4.30;99.90;;;;;;4863803;29;20405;-77
2024/01/27 09:23:01;;;;;;;16.58;4.22;;;4.40;99.90;;;;;;4863690;29;20077;-77
2024/01/27 09:25:27;;;;;;;15.15;4.53;;;4.40;99.90;;;;;;4863761;29;20100;-77
2024/01/27 09:27:54;;;;;;;25.00;4.05;;;4.60;99.90;;;;;;4880336;29;20095;-77
2024/01/27 09:30:20;;;;;;;27.17;5.07;;;4.60;99.90;;;;;;4880619;29;20049;-77
2024/01/27 09:32:46;;;;;;;24.65;5.72;;;4.70;99.90;;;;;;4863599;29;20498;-77
2024/01/27 09:35:11;;;;;;;26.85;7.43;;;4.70;99.90;;;;;;4894449;29;20052;-77
2024/01/27 09:37:37;;;;;;;25.30;5.85;;;4.80;99.90;;;;;;4863480;29;20141;-77
2024/01/27 09:40:09;;;;;;;20.65;4.82;;;4.90;99.90;;;;;;4863988;29;20060;-76
2024/01/27 09:42:39;;;;;;;16.57;4.27;;;5.00;99.90;;;;;;4863586;29;20068;-78
2024/01/27 09:45:05;;;;;;;15.98;3.50;;;5.00;99.90;;;;;;4894479;29;20056;-77
2024/01/27 09:47:31;;;;;;;23.38;4.93;;;5.10;99.90;;;;;;4894679;29;20077;-77
2024/01/27 09:49:57;;;;;;;24.70;4.38;;;5.20;99.90;;;;;;4894653;29;20140;-78
2024/01/27 09:52:24;;;;;;;26.42;4.63;;;5.30;99.90;;;;;;4863336;29;20477;-79
2024/01/27 09:54:49;;;;;;;21.27;5.22;;;5.50;99.90;;;;;;4863382;29;20052;-77
2024/01/27 09:57:15;;;;;;;18.30;3.40;;;5.50;99.90;;;;;;4863274;29;20048;-77
2024/01/27 09:59:44;;;;;;;17.33;4.53;;;5.60;99.90;;;;;;4879883;29;20105;-78
2024/01/27 10:02:11;;;;;;;19.98;4.10;;;5.70;99.90;;;;;;4879737;29;20041;-77
2024/01/27 10:04:38;;;;;;;17.17;4.07;;;5.80;99.90;;;;;;4863387;29;20072;-77
2024/01/27 10:07:04;;;;;;;17.85;4.10;;;5.90;99.90;;;;;;4880033;29;20135;-77
2024/01/27 10:09:29;;;;;;;17.33;4.28;;;6.00;99.90;;;;;;4879832;29;20140;-78
2024/01/27 10:11:57;;;;;;;18.60;4.78;;;6.10;99.90;;;;;;4862940;29;20082;-77
2024/01/27 10:14:23;;;;;;;18.23;3.75;;;6.20;99.90;;;;;;4879652;29;20061;-78
2024/01/27 10:16:48;;;;;;;24.27;5.05;;;6.30;99.90;;;;;;4863248;29;20116;-79
2024/01/27 10:19:19;;;;;;;22.23;5.93;;;6.40;99.90;;;;;;4879545;29;20052;-78
2024/01/27 10:21:45;;;;;;;20.10;5.13;;;6.40;99.90;;;;;;4863277;29;20485;-79
2024/01/27 10:24:12;;;;;;;21.13;5.32;;;6.60;99.90;;;;;;4879511;29;20092;-76
2024/01/27 10:26:37;;;;;;;17.52;4.25;;;6.70;99.90;;;;;;4863039;29;20408;-76
2024/01/27 10:29:03;;;;;;;23.92;5.60;;;6.70;99.90;;;;;;4863155;29;20489;-76
2024/01/27 10:31:34;;;;;;;23.00;4.80;;;6.90;99.90;;;;;;4893834;29;20543;-76
2024/01/27 10:34:01;;;;;;;27.45;4.70;;;7.00;99.90;;;;;;4862817;29;20121;-78
2024/01/27 10:36:37;;;;;;;23.08;4.70;;;7.10;99.90;;;;;;4862800;29;20056;-77
2024/01/27 10:39:22;;;;;;;20.58;3.95;;;7.20;99.90;;;;;;4893840;29;20131;-77
2024/01/27 10:41:49;;;;;;;19.85;3.67;;;7.30;99.90;;;;;;4893845;29;20045;-77
2024/01/27 10:44:19;;;;;;;16.70;3.83;;;7.30;99.90;;;;;;4879174;29;20135;-78
2024/01/27 10:46:48;;;;;;;14.43;3.70;;;7.40;99.90;;;;;;4894573;29;20037;-78
2024/01/27 10:49:15;;;;;;;26.58;4.90;;;7.50;99.90;;;;;;4866423;29;20049;-78
2024/01/27 10:51:50;;;;;;;13.88;2.95;;;7.60;99.90;;;;;;4897672;29;20088;-77
2024/01/27 10:54:27;;;;;;;23.60;4.03;;;7.70;99.90;;;;;;4866609;29;20497;-77
2024/01/27 10:56:59;;;;;;;18.10;2.78;;;7.70;99.90;;;;;;4897540;29;20056;-77
2024/01/27 10:59:27;;;;;;;18.67;4.00;;;7.80;99.90;;;;;;4897449;29;20465;-76
2024/01/27 11:01:54;;;;;;;18.50;3.78;;;7.90;99.90;;;;;;4897270;29;20060;-77
2024/01/27 11:04:21;;;;;;;23.10;3.40;;;7.90;99.90;;;;;;4866116;29;20048;-77
2024/01/27 11:06:51;;;;;;;24.00;4.00;;;8.00;99.90;;;;;;4897619;29;20064;-76
2024/01/27 11:09:18;;;;;;;15.75;3.22;;;8.00;99.90;;;;;;4897414;29;20394;-78
2024/01/27 11:11:47;;;;;;;19.88;3.95;;;8.10;99.90;;;;;;4864018;29;20057;-78
2024/01/27 11:14:13;;;;;;;16.58;3.17;;;8.10;99.90;;;;;;4866347;29;20053;-76
2024/01/27 11:16:44;;;;;;;13.27;3.42;;;8.10;99.90;;;;;;4866249;29;20101;-77
2024/01/27 11:19:12;;;;;;;18.58;3.47;;;8.20;99.90;;;;;;4865741;29;20094;-77
2024/01/27 11:21:37;;;;;;;16.77;4.75;;;8.30;99.90;;;;;;4865922;29;20049;-86
2024/01/27 11:24:16;;;;;;;16.35;4.43;;;8.30;99.90;;;;;;4865809;29;20060;-78
2024/01/27 11:26:42;;;;;;;18.35;4.63;;;8.40;99.90;;;;;;4882648;29;20053;-77
2024/01/27 11:29:09;;;;;;;20.38;3.20;;;8.40;99.90;;;;;;4866070;29;20379;-76
2024/01/27 11:31:35;;;;;;;15.05;4.68;;;8.50;99.90;;;;;;4865835;29;20060;-76
2024/01/27 11:34:01;;;;;;;18.48;3.65;;;8.60;99.90;;;;;;4865750;29;20052;-76
2024/01/27 11:36:28;;;;;;;19.27;3.70;;;8.60;99.90;;;;;;4865731;29;20105;-78
2024/01/27 11:38:55;;;;;;;15.27;4.15;;;8.60;99.90;;;;;;4865903;29;20394;-76
2024/01/27 11:41:27;;;;;;;19.23;4.40;;;8.70;99.90;;;;;;4865647;29;20078;-76
2024/01/27 11:43:59;;;;;;;21.58;4.97;;;8.70;99.90;;;;;;4896710;29;20056;-75
2024/01/27 11:46:25;;;;;;;26.83;5.00;;;8.70;99.90;;;;;;4896556;29;20053;-76
2024/01/27 11:48:51;;;;;;;20.40;4.38;;;8.70;99.90;;;;;;4865406;29;20132;-76
2024/01/27 11:51:19;;;;;;;16.88;3.47;;;8.70;99.90;;;;;;4896549;29;20177;-76
2024/01/27 11:53:45;;;;;;;15.43;4.28;;;8.70;99.90;;;;;;4896743;29;20517;-76
2024/01/27 11:56:11;;;;;;;16.38;3.03;;;8.80;99.90;;;;;;4865535;29;20156;-76
2024/01/27 11:58:36;;;;;;;20.63;3.65;;;8.80;99.90;;;;;;4865244;29;20053;-76
2024/01/27 12:01:02;;;;;;;19.27;4.07;;;8.90;99.90;;;;;;4896272;29;20041;-76
2024/01/27 12:03:30;;;;;;;15.70;4.38;;;8.90;99.90;;;;;;4881785;29;20131;-78
2024/01/27 12:05:56;;;;;;;19.85;4.90;;;8.90;99.90;;;;;;4865218;29;20133;-76
2024/01/27 12:08:24;;;;;;;18.33;3.08;;;9.00;99.90;;;;;;4865056;29;20053;-78
2024/01/27 12:10:52;;;;;;;21.65;5.20;;;9.00;99.90;;;;;;4865197;29;20137;-76
2024/01/27 12:13:17;;;;;;;15.40;3.25;;;9.00;99.90;;;;;;4864959;29;20524;-77
2024/01/27 12:15:43;;;;;;;15.50;3.00;;;9.10;99.90;;;;;;4865315;29;20045;-78
2024/01/27 12:18:10;;;;;;;15.45;3.83;;;9.00;99.90;;;;;;4865227;29;20080;-78
2024/01/27 12:20:35;;;;;;;20.35;3.95;;;9.10;99.90;;;;;;4865161;29;20045;-76
2024/01/27 12:23:07;;;;;;;23.50;3.80;;;9.10;99.90;;;;;;4864643;29;20055;-76
2024/01/27 12:25:33;;;;;;;21.88;4.60;;;9.00;99.90;;;;;;4864862;29;20100;-76
2024/01/27 12:28:07;;;;;;;20.50;4.82;;;9.10;99.90;;;;;;4893096;29;20057;-77
2024/01/27 12:30:33;;;;;;;17.35;4.00;;;9.10;99.90;;;;;;4857249;29;20054;-77
2024/01/27 12:33:00;;;;;;;15.80;4.45;;;9.20;99.90;;;;;;4846292;29;20053;-76
2024/01/27 12:35:29;;;;;;;25.90;9.05;;;9.20;99.90;;;;;;4846141;29;20162;-78
2024/01/27 12:37:54;;;;;;;41.85;19.13;;;9.30;99.90;;;;;;4882685;29;20139;-78
2024/01/27 12:40:21;;;;;;;29.08;11.18;;;9.30;99.90;;;;;;4883553;29;20132;-77
2024/01/27 12:42:50;;;;;;;29.52;10.23;;;9.40;99.90;;;;;;4900112;29;20066;-78